sensor_id;sensor_type;location;lat;lon;timestamp;P1;durP1;ratioP1;P2;durP2;ratioP2
50126;SDS011;36024;47.974;16.398;2023-04-06T00:01:07;4.97;;;4.20;;
50126;SDS011;36024;47.974;16.398;2023-04-06T00:03:34;5.20;;;4.30;;
50126;SDS011;36024;47.974;16.398;2023-04-06T00:06:01;5.93;;;4.00;;
50126;SDS011;36024;47.974;16.398;2023-04-06T00:08:28;6.43;;;4.23;;
50126;SDS011;36024;47.974;16.398;2023-04-06T00:10:54;6.13;;;3.83;;
50126;SDS011;36024;47.974;16.398;2023-04-06T00:13:21;4.70;;;3.87;;
50126;SDS011;36024;47.974;16.398;2023-04-06T00:15:48;5.10;;;4.17;;
50126;SDS011;36024;47.974;16.398;2023-04-06T00:18:14;5.13;;;4.00;;
50126;SDS011;36024;47.974;16.398;2023-04-06T00:20:41;5.57;;;4.10;;
50126;SDS011;36024;47.974;16.398;2023-04-06T00:23:08;5.00;;;4.30;;
50126;SDS011;36024;47.974;16.398;2023-04-06T00:25:34;5.87;;;4.30;;
50126;SDS011;36024;47.974;16.398;2023-04-06T00:28:01;6.67;;;4.53;;
50126;SDS011;36024;47.974;16.398;2023-04-06T00:30:29;5.17;;;4.10;;
50126;SDS011;36024;47.974;16.398;2023-04-06T00:32:55;5.90;;;4.20;;
50126;SDS011;36024;47.974;16.398;2023-04-06T00:35:22;6.70;;;4.37;;
50126;SDS011;36024;47.974;16.398;2023-04-06T00:37:49;4.13;;;3.73;;
50126;SDS011;36024;47.974;16.398;2023-04-06T00:40:16;5.47;;;4.10;;
50126;SDS011;36024;47.974;16.398;2023-04-06T00:42:44;5.70;;;4.40;;
50126;SDS011;36024;47.974;16.398;2023-04-06T00:45:10;6.00;;;3.90;;
50126;SDS011;36024;47.974;16.398;2023-04-06T00:47:38;4.97;;;4.20;;
50126;SDS011;36024;47.974;16.398;2023-04-06T00:50:05;5.80;;;4.00;;
50126;SDS011;36024;47.974;16.398;2023-04-06T00:52:33;6.60;;;4.20;;
50126;SDS011;36024;47.974;16.398;2023-04-06T00:55:01;5.30;;;4.10;;
50126;SDS011;36024;47.974;16.398;2023-04-06T00:57:29;6.27;;;4.10;;
50126;SDS011;36024;47.974;16.398;2023-04-06T00:59:56;4.97;;;4.17;;
50126;SDS011;36024;47.974;16.398;2023-04-06T01:02:23;7.87;;;4.23;;
50126;SDS011;36024;47.974;16.398;2023-04-06T01:04:52;6.33;;;4.73;;
50126;SDS011;36024;47.974;16.398;2023-04-06T01:07:26;6.10;;;4.50;;
50126;SDS011;36024;47.974;16.398;2023-04-06T01:10:10;6.03;;;4.57;;
50126;SDS011;36024;47.974;16.398;2023-04-06T01:12:37;6.33;;;4.43;;
50126;SDS011;36024;47.974;16.398;2023-04-06T01:15:12;5.03;;;4.37;;
50126;SDS011;36024;47.974;16.398;2023-04-06T01:17:42;6.90;;;4.13;;
50126;SDS011;36024;47.974;16.398;2023-04-06T01:20:13;5.17;;;4.23;;
50126;SDS011;36024;47.974;16.398;2023-04-06T01:22:40;4.47;;;4.07;;
50126;SDS011;36024;47.974;16.398;2023-04-06T01:25:07;5.23;;;4.50;;
50126;SDS011;36024;47.974;16.398;2023-04-06T01:27:57;8.70;;;5.53;;
50126;SDS011;36024;47.974;16.398;2023-04-06T01:30:41;5.50;;;4.80;;
50126;SDS011;36024;47.974;16.398;2023-04-06T01:33:27;6.03;;;4.90;;
50126;SDS011;36024;47.974;16.398;2023-04-06T01:35:59;5.30;;;4.23;;
50126;SDS011;36024;47.974;16.398;2023-04-06T01:38:27;4.87;;;4.20;;
50126;SDS011;36024;47.974;16.398;2023-04-06T01:40:54;5.37;;;4.30;;
50126;SDS011;36024;47.974;16.398;2023-04-06T01:43:22;6.20;;;4.50;;
50126;SDS011;36024;47.974;16.398;2023-04-06T01:46:03;4.57;;;4.17;;
50126;SDS011;36024;47.974;16.398;2023-04-06T01:48:34;5.67;;;4.20;;
50126;SDS011;36024;47.974;16.398;2023-04-06T01:51:09;5.80;;;4.57;;
50126;SDS011;36024;47.974;16.398;2023-04-06T01:53:44;5.20;;;4.03;;
50126;SDS011;36024;47.974;16.398;2023-04-06T01:56:11;4.60;;;4.20;;
50126;SDS011;36024;47.974;16.398;2023-04-06T01:58:45;5.60;;;4.53;;
50126;SDS011;36024;47.974;16.398;2023-04-06T02:01:14;5.60;;;4.47;;
50126;SDS011;36024;47.974;16.398;2023-04-06T02:03:52;5.77;;;4.83;;
50126;SDS011;36024;47.974;16.398;2023-04-06T02:06:20;5.20;;;4.80;;
50126;SDS011;36024;47.974;16.398;2023-04-06T02:08:47;5.83;;;5.27;;
50126;SDS011;36024;47.974;16.398;2023-04-06T02:11:14;5.43;;;4.70;;
50126;SDS011;36024;47.974;16.398;2023-04-06T02:13:51;6.63;;;4.93;;
50126;SDS011;36024;47.974;16.398;2023-04-06T02:16:21;5.30;;;4.80;;
50126;SDS011;36024;47.974;16.398;2023-04-06T02:18:49;5.20;;;4.53;;
50126;SDS011;36024;47.974;16.398;2023-04-06T02:21:17;5.63;;;4.80;;
50126;SDS011;36024;47.974;16.398;2023-04-06T02:23:51;5.53;;;4.53;;
50126;SDS011;36024;47.974;16.398;2023-04-06T02:26:18;5.47;;;4.70;;
50126;SDS011;36024;47.974;16.398;2023-04-06T02:28:46;6.80;;;4.83;;
50126;SDS011;36024;47.974;16.398;2023-04-06T02:31:13;6.03;;;4.87;;
50126;SDS011;36024;47.974;16.398;2023-04-06T02:33:46;5.50;;;5.00;;
50126;SDS011;36024;47.974;16.398;2023-04-06T02:36:15;5.37;;;4.70;;
50126;SDS011;36024;47.974;16.398;2023-04-06T02:38:41;5.90;;;4.37;;
50126;SDS011;36024;47.974;16.398;2023-04-06T02:41:08;5.83;;;4.73;;
50126;SDS011;36024;47.974;16.398;2023-04-06T02:43:36;5.00;;;4.47;;
50126;SDS011;36024;47.974;16.398;2023-04-06T02:46:10;5.57;;;4.57;;
50126;SDS011;36024;47.974;16.398;2023-04-06T02:48:38;6.33;;;4.93;;
50126;SDS011;36024;47.974;16.398;2023-04-06T02:51:05;5.53;;;4.60;;
50126;SDS011;36024;47.974;16.398;2023-04-06T02:53:33;7.07;;;4.60;;
50126;SDS011;36024;47.974;16.398;2023-04-06T02:56:00;6.13;;;4.13;;
50126;SDS011;36024;47.974;16.398;2023-04-06T02:58:36;6.83;;;4.63;;
50126;SDS011;36024;47.974;16.398;2023-04-06T03:01:03;4.90;;;4.23;;
50126;SDS011;36024;47.974;16.398;2023-04-06T03:03:30;6.00;;;4.80;;
50126;SDS011;36024;47.974;16.398;2023-04-06T03:05:57;5.00;;;4.50;;
50126;SDS011;36024;47.974;16.398;2023-04-06T03:08:29;4.77;;;4.17;;
50126;SDS011;36024;47.974;16.398;2023-04-06T03:10:55;6.27;;;4.50;;
50126;SDS011;36024;47.974;16.398;2023-04-06T03:13:30;4.80;;;4.10;;
50126;SDS011;36024;47.974;16.398;2023-04-06T03:15:58;6.83;;;4.37;;
50126;SDS011;36024;47.974;16.398;2023-04-06T03:18:25;5.33;;;4.83;;
50126;SDS011;36024;47.974;16.398;2023-04-06T03:20:54;5.37;;;4.87;;
50126;SDS011;36024;47.974;16.398;2023-04-06T03:23:26;6.77;;;4.80;;
50126;SDS011;36024;47.974;16.398;2023-04-06T03:25:57;5.40;;;4.90;;
50126;SDS011;36024;47.974;16.398;2023-04-06T03:28:24;5.20;;;4.70;;
50126;SDS011;36024;47.974;16.398;2023-04-06T03:30:57;6.33;;;5.03;;
50126;SDS011;36024;47.974;16.398;2023-04-06T03:33:42;5.50;;;4.97;;
50126;SDS011;36024;47.974;16.398;2023-04-06T03:36:15;6.03;;;4.83;;
50126;SDS011;36024;47.974;16.398;2023-04-06T03:38:43;4.97;;;4.37;;
50126;SDS011;36024;47.974;16.398;2023-04-06T03:41:12;5.60;;;5.07;;
50126;SDS011;36024;47.974;16.398;2023-04-06T03:43:42;5.97;;;5.37;;
50126;SDS011;36024;47.974;16.398;2023-04-06T03:46:09;5.77;;;4.60;;
50126;SDS011;36024;47.974;16.398;2023-04-06T03:48:36;5.43;;;4.70;;
50126;SDS011;36024;47.974;16.398;2023-04-06T03:51:05;5.23;;;4.37;;
50126;SDS011;36024;47.974;16.398;2023-04-06T03:53:31;7.00;;;4.60;;
50126;SDS011;36024;47.974;16.398;2023-04-06T03:55:58;5.70;;;4.70;;
50126;SDS011;36024;47.974;16.398;2023-04-06T03:58:26;6.80;;;4.70;;
50126;SDS011;36024;47.974;16.398;2023-04-06T04:00:53;5.13;;;4.63;;
50126;SDS011;36024;47.974;16.398;2023-04-06T04:03:20;6.27;;;4.50;;
50126;SDS011;36024;47.974;16.398;2023-04-06T04:05:48;6.53;;;4.40;;
50126;SDS011;36024;47.974;16.398;2023-04-06T04:08:14;6.10;;;4.77;;
50126;SDS011;36024;47.974;16.398;2023-04-06T04:10:41;5.93;;;4.70;;
50126;SDS011;36024;47.974;16.398;2023-04-06T04:13:08;5.10;;;4.60;;
50126;SDS011;36024;47.974;16.398;2023-04-06T04:15:35;5.97;;;4.50;;
50126;SDS011;36024;47.974;16.398;2023-04-06T04:18:01;6.77;;;5.17;;
50126;SDS011;36024;47.974;16.398;2023-04-06T04:20:28;8.07;;;6.63;;
50126;SDS011;36024;47.974;16.398;2023-04-06T04:22:56;9.50;;;5.90;;
50126;SDS011;36024;47.974;16.398;2023-04-06T04:25:23;6.63;;;5.63;;
50126;SDS011;36024;47.974;16.398;2023-04-06T04:27:50;7.57;;;5.47;;
50126;SDS011;36024;47.974;16.398;2023-04-06T04:30:19;6.60;;;5.07;;
50126;SDS011;36024;47.974;16.398;2023-04-06T04:32:46;5.83;;;5.23;;
50126;SDS011;36024;47.974;16.398;2023-04-06T04:35:16;5.70;;;5.03;;
50126;SDS011;36024;47.974;16.398;2023-04-06T04:37:43;6.27;;;4.97;;
50126;SDS011;36024;47.974;16.398;2023-04-06T04:40:10;6.53;;;4.80;;
50126;SDS011;36024;47.974;16.398;2023-04-06T04:42:49;6.00;;;4.60;;
50126;SDS011;36024;47.974;16.398;2023-04-06T04:45:27;6.53;;;5.10;;
50126;SDS011;36024;47.974;16.398;2023-04-06T04:47:54;4.83;;;4.43;;
50126;SDS011;36024;47.974;16.398;2023-04-06T04:50:24;6.03;;;4.87;;
50126;SDS011;36024;47.974;16.398;2023-04-06T04:52:55;6.33;;;4.47;;
50126;SDS011;36024;47.974;16.398;2023-04-06T04:55:24;5.60;;;4.97;;
50126;SDS011;36024;47.974;16.398;2023-04-06T04:57:53;6.17;;;5.00;;
50126;SDS011;36024;47.974;16.398;2023-04-06T05:00:26;6.03;;;5.03;;
50126;SDS011;36024;47.974;16.398;2023-04-06T05:02:56;8.00;;;5.50;;
50126;SDS011;36024;47.974;16.398;2023-04-06T05:05:26;8.00;;;5.10;;
50126;SDS011;36024;47.974;16.398;2023-04-06T05:07:53;7.17;;;4.93;;
50126;SDS011;36024;47.974;16.398;2023-04-06T05:10:29;6.83;;;5.20;;
50126;SDS011;36024;47.974;16.398;2023-04-06T05:13:00;6.63;;;5.80;;
50126;SDS011;36024;47.974;16.398;2023-04-06T05:15:28;6.73;;;5.53;;
50126;SDS011;36024;47.974;16.398;2023-04-06T05:18:02;9.33;;;6.00;;
50126;SDS011;36024;47.974;16.398;2023-04-06T05:20:32;6.83;;;5.27;;
50126;SDS011;36024;47.974;16.398;2023-04-06T05:22:59;6.60;;;5.47;;
50126;SDS011;36024;47.974;16.398;2023-04-06T05:25:27;6.07;;;5.07;;
50126;SDS011;36024;47.974;16.398;2023-04-06T05:27:58;7.80;;;5.00;;
50126;SDS011;36024;47.974;16.398;2023-04-06T05:30:30;7.03;;;6.03;;
50126;SDS011;36024;47.974;16.398;2023-04-06T05:32:58;8.83;;;6.60;;
50126;SDS011;36024;47.974;16.398;2023-04-06T05:35:29;7.80;;;6.60;;
50126;SDS011;36024;47.974;16.398;2023-04-06T05:38:02;11.07;;;6.93;;
50126;SDS011;36024;47.974;16.398;2023-04-06T05:40:28;8.43;;;7.30;;
50126;SDS011;36024;47.974;16.398;2023-04-06T05:42:55;12.03;;;7.83;;
50126;SDS011;36024;47.974;16.398;2023-04-06T05:45:22;11.70;;;7.20;;
50126;SDS011;36024;47.974;16.398;2023-04-06T05:47:53;10.27;;;7.57;;
50126;SDS011;36024;47.974;16.398;2023-04-06T05:50:26;11.87;;;7.73;;
50126;SDS011;36024;47.974;16.398;2023-04-06T05:52:55;8.67;;;6.53;;
50126;SDS011;36024;47.974;16.398;2023-04-06T05:55:25;8.40;;;5.80;;
50126;SDS011;36024;47.974;16.398;2023-04-06T05:58:03;8.57;;;6.07;;
50126;SDS011;36024;47.974;16.398;2023-04-06T06:00:30;6.67;;;5.47;;
50126;SDS011;36024;47.974;16.398;2023-04-06T06:03:03;7.87;;;6.00;;
50126;SDS011;36024;47.974;16.398;2023-04-06T06:05:31;7.07;;;5.70;;
50126;SDS011;36024;47.974;16.398;2023-04-06T06:08:05;6.07;;;5.43;;
50126;SDS011;36024;47.974;16.398;2023-04-06T06:10:32;8.00;;;5.97;;
50126;SDS011;36024;47.974;16.398;2023-04-06T06:12:58;7.30;;;5.80;;
50126;SDS011;36024;47.974;16.398;2023-04-06T06:15:26;6.00;;;5.40;;
50126;SDS011;36024;47.974;16.398;2023-04-06T06:17:53;8.83;;;5.90;;
50126;SDS011;36024;47.974;16.398;2023-04-06T06:20:20;9.13;;;6.27;;
50126;SDS011;36024;47.974;16.398;2023-04-06T06:22:47;9.03;;;5.20;;
50126;SDS011;36024;47.974;16.398;2023-04-06T06:25:19;5.27;;;4.77;;
50126;SDS011;36024;47.974;16.398;2023-04-06T06:27:47;6.13;;;5.00;;
50126;SDS011;36024;47.974;16.398;2023-04-06T06:30:16;5.23;;;4.47;;
50126;SDS011;36024;47.974;16.398;2023-04-06T06:32:44;6.40;;;5.37;;
50126;SDS011;36024;47.974;16.398;2023-04-06T06:35:11;6.80;;;5.53;;
50126;SDS011;36024;47.974;16.398;2023-04-06T06:37:38;8.40;;;4.53;;
50126;SDS011;36024;47.974;16.398;2023-04-06T06:40:09;5.30;;;4.80;;
50126;SDS011;36024;47.974;16.398;2023-04-06T06:42:42;5.50;;;4.53;;
50126;SDS011;36024;47.974;16.398;2023-04-06T06:45:28;5.83;;;4.80;;
50126;SDS011;36024;47.974;16.398;2023-04-06T06:48:12;5.67;;;4.70;;
50126;SDS011;36024;47.974;16.398;2023-04-06T06:50:40;6.30;;;4.93;;
50126;SDS011;36024;47.974;16.398;2023-04-06T06:53:07;5.43;;;4.83;;
50126;SDS011;36024;47.974;16.398;2023-04-06T06:55:35;6.47;;;4.50;;
50126;SDS011;36024;47.974;16.398;2023-04-06T06:58:04;6.83;;;4.33;;
50126;SDS011;36024;47.974;16.398;2023-04-06T07:00:32;5.50;;;4.90;;
50126;SDS011;36024;47.974;16.398;2023-04-06T07:03:00;6.87;;;5.13;;
50126;SDS011;36024;47.974;16.398;2023-04-06T07:05:27;8.63;;;4.87;;
50126;SDS011;36024;47.974;16.398;2023-04-06T07:07:56;5.57;;;4.90;;
50126;SDS011;36024;47.974;16.398;2023-04-06T07:10:24;9.53;;;5.10;;
50126;SDS011;36024;47.974;16.398;2023-04-06T07:12:53;5.50;;;5.00;;
50126;SDS011;36024;47.974;16.398;2023-04-06T07:15:20;5.90;;;4.90;;
50126;SDS011;36024;47.974;16.398;2023-04-06T07:17:47;7.63;;;5.47;;
50126;SDS011;36024;47.974;16.398;2023-04-06T07:20:14;6.47;;;4.43;;
50126;SDS011;36024;47.974;16.398;2023-04-06T07:22:42;6.60;;;5.17;;
50126;SDS011;36024;47.974;16.398;2023-04-06T07:25:09;5.30;;;4.67;;
50126;SDS011;36024;47.974;16.398;2023-04-06T07:27:36;6.30;;;4.60;;
50126;SDS011;36024;47.974;16.398;2023-04-06T07:30:03;6.00;;;4.80;;
50126;SDS011;36024;47.974;16.398;2023-04-06T07:32:30;5.23;;;4.33;;
50126;SDS011;36024;47.974;16.398;2023-04-06T07:34:57;5.53;;;4.13;;
50126;SDS011;36024;47.974;16.398;2023-04-06T07:37:24;9.37;;;4.87;;
50126;SDS011;36024;47.974;16.398;2023-04-06T07:39:51;5.30;;;4.43;;
50126;SDS011;36024;47.974;16.398;2023-04-06T07:42:18;5.60;;;4.70;;
50126;SDS011;36024;47.974;16.398;2023-04-06T07:44:45;4.83;;;4.30;;
50126;SDS011;36024;47.974;16.398;2023-04-06T07:47:12;6.13;;;4.73;;
50126;SDS011;36024;47.974;16.398;2023-04-06T07:49:38;4.83;;;4.33;;
50126;SDS011;36024;47.974;16.398;2023-04-06T07:52:05;7.63;;;4.80;;
50126;SDS011;36024;47.974;16.398;2023-04-06T07:54:32;6.07;;;4.30;;
50126;SDS011;36024;47.974;16.398;2023-04-06T07:56:59;4.70;;;4.30;;
50126;SDS011;36024;47.974;16.398;2023-04-06T07:59:25;6.00;;;4.70;;
50126;SDS011;36024;47.974;16.398;2023-04-06T08:01:52;4.57;;;3.67;;
50126;SDS011;36024;47.974;16.398;2023-04-06T08:04:19;4.53;;;3.80;;
50126;SDS011;36024;47.974;16.398;2023-04-06T08:06:48;6.67;;;4.20;;
50126;SDS011;36024;47.974;16.398;2023-04-06T08:09:14;6.20;;;3.80;;
50126;SDS011;36024;47.974;16.398;2023-04-06T08:11:41;4.43;;;3.80;;
50126;SDS011;36024;47.974;16.398;2023-04-06T08:14:09;4.47;;;3.67;;
50126;SDS011;36024;47.974;16.398;2023-04-06T08:16:36;4.10;;;3.70;;
50126;SDS011;36024;47.974;16.398;2023-04-06T08:19:03;4.20;;;3.80;;
50126;SDS011;36024;47.974;16.398;2023-04-06T08:21:30;4.90;;;3.60;;
50126;SDS011;36024;47.974;16.398;2023-04-06T08:23:57;6.23;;;3.47;;
50126;SDS011;36024;47.974;16.398;2023-04-06T08:26:23;4.40;;;3.60;;
50126;SDS011;36024;47.974;16.398;2023-04-06T08:28:51;5.87;;;4.23;;
50126;SDS011;36024;47.974;16.398;2023-04-06T08:31:18;4.80;;;3.57;;
50126;SDS011;36024;47.974;16.398;2023-04-06T08:33:45;5.93;;;3.73;;
50126;SDS011;36024;47.974;16.398;2023-04-06T08:36:12;5.30;;;3.50;;
50126;SDS011;36024;47.974;16.398;2023-04-06T08:38:40;4.57;;;3.20;;
50126;SDS011;36024;47.974;16.398;2023-04-06T08:41:08;5.20;;;3.43;;
50126;SDS011;36024;47.974;16.398;2023-04-06T08:46:21;4.93;;;4.00;;
50126;SDS011;36024;47.974;16.398;2023-04-06T08:48:48;4.60;;;3.70;;
50126;SDS011;36024;47.974;16.398;2023-04-06T08:51:16;3.80;;;3.10;;
50126;SDS011;36024;47.974;16.398;2023-04-06T08:53:44;3.70;;;3.00;;
50126;SDS011;36024;47.974;16.398;2023-04-06T08:56:10;4.37;;;2.90;;
50126;SDS011;36024;47.974;16.398;2023-04-06T08:58:38;4.80;;;3.00;;
50126;SDS011;36024;47.974;16.398;2023-04-06T09:01:07;3.20;;;2.80;;
50126;SDS011;36024;47.974;16.398;2023-04-06T09:03:38;4.20;;;2.40;;
50126;SDS011;36024;47.974;16.398;2023-04-06T09:06:06;5.57;;;2.73;;
50126;SDS011;36024;47.974;16.398;2023-04-06T09:08:34;3.13;;;2.80;;
50126;SDS011;36024;47.974;16.398;2023-04-06T09:11:04;3.43;;;2.63;;
50126;SDS011;36024;47.974;16.398;2023-04-06T09:13:31;4.60;;;3.23;;
50126;SDS011;36024;47.974;16.398;2023-04-06T09:15:59;5.20;;;2.90;;
50126;SDS011;36024;47.974;16.398;2023-04-06T09:18:32;2.97;;;2.77;;
50126;SDS011;36024;47.974;16.398;2023-04-06T09:21:00;4.63;;;2.80;;
50126;SDS011;36024;47.974;16.398;2023-04-06T09:23:28;3.83;;;3.10;;
50126;SDS011;36024;47.974;16.398;2023-04-06T09:26:07;3.33;;;2.83;;
50126;SDS011;36024;47.974;16.398;2023-04-06T09:31:12;3.47;;;3.00;;
50126;SDS011;36024;47.974;16.398;2023-04-06T09:33:44;4.83;;;2.90;;
50126;SDS011;36024;47.974;16.398;2023-04-06T09:36:12;3.07;;;2.67;;
50126;SDS011;36024;47.974;16.398;2023-04-06T09:38:52;3.97;;;3.00;;
50126;SDS011;36024;47.974;16.398;2023-04-06T09:41:32;5.13;;;3.20;;
50126;SDS011;36024;47.974;16.398;2023-04-06T09:44:04;3.27;;;2.97;;
50126;SDS011;36024;47.974;16.398;2023-04-06T09:46:36;3.93;;;3.07;;
50126;SDS011;36024;47.974;16.398;2023-04-06T09:49:27;4.03;;;3.03;;
50126;SDS011;36024;47.974;16.398;2023-04-06T09:51:56;4.10;;;3.03;;
50126;SDS011;36024;47.974;16.398;2023-04-06T09:54:26;4.23;;;3.27;;
50126;SDS011;36024;47.974;16.398;2023-04-06T09:57:07;3.37;;;3.07;;
50126;SDS011;36024;47.974;16.398;2023-04-06T09:59:44;3.87;;;3.47;;
50126;SDS011;36024;47.974;16.398;2023-04-06T10:02:33;4.17;;;3.40;;
50126;SDS011;36024;47.974;16.398;2023-04-06T10:05:31;3.60;;;3.10;;
50126;SDS011;36024;47.974;16.398;2023-04-06T10:08:05;3.70;;;3.13;;
50126;SDS011;36024;47.974;16.398;2023-04-06T10:10:33;4.57;;;3.40;;
50126;SDS011;36024;47.974;16.398;2023-04-06T10:13:00;3.80;;;3.17;;
50126;SDS011;36024;47.974;16.398;2023-04-06T10:15:29;4.30;;;3.20;;
50126;SDS011;36024;47.974;16.398;2023-04-06T10:17:58;3.83;;;3.30;;
50126;SDS011;36024;47.974;16.398;2023-04-06T10:25:52;3.97;;;3.57;;
50126;SDS011;36024;47.974;16.398;2023-04-06T10:28:20;5.37;;;3.60;;
50126;SDS011;36024;47.974;16.398;2023-04-06T10:30:47;5.43;;;3.77;;
50126;SDS011;36024;47.974;16.398;2023-04-06T10:33:15;3.17;;;2.87;;
50126;SDS011;36024;47.974;16.398;2023-04-06T10:35:43;4.67;;;2.80;;
50126;SDS011;36024;47.974;16.398;2023-04-06T10:38:10;3.10;;;2.60;;
50126;SDS011;36024;47.974;16.398;2023-04-06T10:40:41;2.80;;;2.40;;
50126;SDS011;36024;47.974;16.398;2023-04-06T10:43:18;5.47;;;3.00;;
50126;SDS011;36024;47.974;16.398;2023-04-06T10:45:56;2.17;;;1.97;;
50126;SDS011;36024;47.974;16.398;2023-04-06T10:48:24;3.53;;;2.23;;
50126;SDS011;36024;47.974;16.398;2023-04-06T10:50:52;3.37;;;2.20;;
50126;SDS011;36024;47.974;16.398;2023-04-06T10:53:25;3.03;;;2.43;;
50126;SDS011;36024;47.974;16.398;2023-04-06T10:55:54;2.47;;;2.27;;
50126;SDS011;36024;47.974;16.398;2023-04-06T10:58:26;3.80;;;2.77;;
50126;SDS011;36024;47.974;16.398;2023-04-06T11:00:53;2.63;;;2.17;;
50126;SDS011;36024;47.974;16.398;2023-04-06T11:03:21;2.50;;;2.30;;
50126;SDS011;36024;47.974;16.398;2023-04-06T11:05:48;2.93;;;2.50;;
50126;SDS011;36024;47.974;16.398;2023-04-06T11:08:25;2.73;;;2.47;;
50126;SDS011;36024;47.974;16.398;2023-04-06T11:11:06;3.90;;;2.47;;
50126;SDS011;36024;47.974;16.398;2023-04-06T11:13:38;2.80;;;2.50;;
50126;SDS011;36024;47.974;16.398;2023-04-06T11:16:06;5.27;;;2.30;;
50126;SDS011;36024;47.974;16.398;2023-04-06T11:18:45;4.60;;;2.70;;
50126;SDS011;36024;47.974;16.398;2023-04-06T11:21:13;2.93;;;2.63;;
50126;SDS011;36024;47.974;16.398;2023-04-06T11:23:40;2.70;;;2.20;;
50126;SDS011;36024;47.974;16.398;2023-04-06T11:26:10;2.40;;;2.20;;
50126;SDS011;36024;47.974;16.398;2023-04-06T11:28:41;3.23;;;2.03;;
50126;SDS011;36024;47.974;16.398;2023-04-06T11:31:10;2.40;;;2.20;;
50126;SDS011;36024;47.974;16.398;2023-04-06T11:33:38;3.13;;;2.20;;
50126;SDS011;36024;47.974;16.398;2023-04-06T11:36:05;2.63;;;2.20;;
50126;SDS011;36024;47.974;16.398;2023-04-06T11:38:33;2.83;;;2.37;;
50126;SDS011;36024;47.974;16.398;2023-04-06T11:41:00;2.93;;;2.30;;
50126;SDS011;36024;47.974;16.398;2023-04-06T11:43:29;2.60;;;2.40;;
50126;SDS011;36024;47.974;16.398;2023-04-06T11:46:00;2.87;;;2.40;;
50126;SDS011;36024;47.974;16.398;2023-04-06T11:48:32;2.47;;;2.10;;
50126;SDS011;36024;47.974;16.398;2023-04-06T11:51:11;2.77;;;2.30;;
50126;SDS011;36024;47.974;16.398;2023-04-06T11:53:45;3.03;;;2.20;;
50126;SDS011;36024;47.974;16.398;2023-04-06T11:56:22;3.87;;;2.30;;
50126;SDS011;36024;47.974;16.398;2023-04-06T11:58:50;3.23;;;2.40;;
50126;SDS011;36024;47.974;16.398;2023-04-06T12:01:17;4.17;;;2.33;;
50126;SDS011;36024;47.974;16.398;2023-04-06T12:03:44;2.30;;;2.10;;
50126;SDS011;36024;47.974;16.398;2023-04-06T12:06:11;3.93;;;2.30;;
50126;SDS011;36024;47.974;16.398;2023-04-06T12:08:38;3.63;;;2.80;;
50126;SDS011;36024;47.974;16.398;2023-04-06T12:11:04;2.20;;;2.00;;
50126;SDS011;36024;47.974;16.398;2023-04-06T12:13:31;3.00;;;2.03;;
50126;SDS011;36024;47.974;16.398;2023-04-06T12:15:58;2.37;;;2.17;;
50126;SDS011;36024;47.974;16.398;2023-04-06T12:18:24;3.43;;;1.93;;
50126;SDS011;36024;47.974;16.398;2023-04-06T12:20:51;2.63;;;2.43;;
50126;SDS011;36024;47.974;16.398;2023-04-06T12:23:18;2.43;;;2.23;;
50126;SDS011;36024;47.974;16.398;2023-04-06T12:25:46;2.57;;;2.37;;
50126;SDS011;36024;47.974;16.398;2023-04-06T12:28:12;2.73;;;2.53;;
50126;SDS011;36024;47.974;16.398;2023-04-06T12:30:39;3.63;;;2.43;;
50126;SDS011;36024;47.974;16.398;2023-04-06T12:33:08;2.93;;;2.60;;
50126;SDS011;36024;47.974;16.398;2023-04-06T12:35:35;4.67;;;2.53;;
50126;SDS011;36024;47.974;16.398;2023-04-06T12:38:03;3.47;;;2.60;;
50126;SDS011;36024;47.974;16.398;2023-04-06T12:40:29;2.97;;;2.23;;
50126;SDS011;36024;47.974;16.398;2023-04-06T12:42:56;4.87;;;2.70;;
50126;SDS011;36024;47.974;16.398;2023-04-06T12:45:22;3.77;;;2.60;;
50126;SDS011;36024;47.974;16.398;2023-04-06T12:47:50;3.40;;;2.80;;
50126;SDS011;36024;47.974;16.398;2023-04-06T12:50:17;2.87;;;2.50;;
50126;SDS011;36024;47.974;16.398;2023-04-06T12:52:44;4.00;;;2.60;;
50126;SDS011;36024;47.974;16.398;2023-04-06T12:55:11;2.70;;;2.50;;
50126;SDS011;36024;47.974;16.398;2023-04-06T12:57:37;2.83;;;2.60;;
50126;SDS011;36024;47.974;16.398;2023-04-06T13:00:06;2.77;;;2.57;;
50126;SDS011;36024;47.974;16.398;2023-04-06T13:02:34;3.03;;;2.70;;
50126;SDS011;36024;47.974;16.398;2023-04-06T13:05:01;3.60;;;2.70;;
50126;SDS011;36024;47.974;16.398;2023-04-06T13:07:28;3.13;;;2.70;;
50126;SDS011;36024;47.974;16.398;2023-04-06T13:09:54;2.40;;;2.20;;
50126;SDS011;36024;47.974;16.398;2023-04-06T13:12:21;4.30;;;3.00;;
50126;SDS011;36024;47.974;16.398;2023-04-06T13:14:48;3.13;;;2.57;;
50126;SDS011;36024;47.974;16.398;2023-04-06T13:17:17;3.13;;;2.80;;
50126;SDS011;36024;47.974;16.398;2023-04-06T13:19:46;3.47;;;2.50;;
50126;SDS011;36024;47.974;16.398;2023-04-06T13:22:13;3.00;;;2.70;;
50126;SDS011;36024;47.974;16.398;2023-04-06T13:24:39;5.73;;;2.50;;
50126;SDS011;36024;47.974;16.398;2023-04-06T13:27:06;3.17;;;2.70;;
50126;SDS011;36024;47.974;16.398;2023-04-06T13:29:32;3.03;;;2.50;;
50126;SDS011;36024;47.974;16.398;2023-04-06T13:32:00;4.50;;;2.57;;
50126;SDS011;36024;47.974;16.398;2023-04-06T13:34:27;2.83;;;2.50;;
50126;SDS011;36024;47.974;16.398;2023-04-06T13:36:53;11.10;;;2.77;;
50126;SDS011;36024;47.974;16.398;2023-04-06T13:39:20;3.50;;;3.20;;
50126;SDS011;36024;47.974;16.398;2023-04-06T13:41:47;3.80;;;2.80;;
50126;SDS011;36024;47.974;16.398;2023-04-06T13:44:13;2.70;;;2.50;;
50126;SDS011;36024;47.974;16.398;2023-04-06T13:46:40;4.70;;;2.10;;
50126;SDS011;36024;47.974;16.398;2023-04-06T13:49:07;4.27;;;2.80;;
50126;SDS011;36024;47.974;16.398;2023-04-06T13:51:33;4.13;;;2.50;;
50126;SDS011;36024;47.974;16.398;2023-04-06T13:54:00;4.70;;;2.77;;
50126;SDS011;36024;47.974;16.398;2023-04-06T13:56:27;3.37;;;2.40;;
50126;SDS011;36024;47.974;16.398;2023-04-06T13:58:54;6.23;;;4.20;;
50126;SDS011;36024;47.974;16.398;2023-04-06T14:01:22;3.80;;;2.50;;
50126;SDS011;36024;47.974;16.398;2023-04-06T14:03:49;4.43;;;2.30;;
50126;SDS011;36024;47.974;16.398;2023-04-06T14:06:16;3.27;;;2.67;;
50126;SDS011;36024;47.974;16.398;2023-04-06T14:08:45;4.10;;;2.83;;
50126;SDS011;36024;47.974;16.398;2023-04-06T14:11:13;3.40;;;2.90;;
50126;SDS011;36024;47.974;16.398;2023-04-06T14:13:39;4.27;;;2.80;;
50126;SDS011;36024;47.974;16.398;2023-04-06T14:16:06;4.27;;;2.73;;
50126;SDS011;36024;47.974;16.398;2023-04-06T14:18:33;3.43;;;3.07;;
50126;SDS011;36024;47.974;16.398;2023-04-06T14:21:02;3.23;;;2.70;;
50126;SDS011;36024;47.974;16.398;2023-04-06T14:23:29;3.73;;;2.80;;
50126;SDS011;36024;47.974;16.398;2023-04-06T14:26:06;6.47;;;3.00;;
50126;SDS011;36024;47.974;16.398;2023-04-06T14:28:34;3.27;;;2.97;;
50126;SDS011;36024;47.974;16.398;2023-04-06T14:31:08;4.87;;;3.30;;
50126;SDS011;36024;47.974;16.398;2023-04-06T14:33:38;3.07;;;2.80;;
50126;SDS011;36024;47.974;16.398;2023-04-06T14:36:05;4.07;;;2.90;;
50126;SDS011;36024;47.974;16.398;2023-04-06T14:38:32;4.03;;;2.60;;
50126;SDS011;36024;47.974;16.398;2023-04-06T14:40:59;4.30;;;2.60;;
50126;SDS011;36024;47.974;16.398;2023-04-06T14:43:25;4.27;;;3.10;;
50126;SDS011;36024;47.974;16.398;2023-04-06T14:45:52;3.83;;;3.53;;
50126;SDS011;36024;47.974;16.398;2023-04-06T14:48:19;5.07;;;3.33;;
50126;SDS011;36024;47.974;16.398;2023-04-06T14:50:52;3.47;;;2.93;;
50126;SDS011;36024;47.974;16.398;2023-04-06T14:53:23;2.87;;;2.63;;
50126;SDS011;36024;47.974;16.398;2023-04-06T14:55:50;4.13;;;3.10;;